sensor_id;sensor_type;location;lat;lon;timestamp;pressure;altitude;pressure_sealevel;temperature;humidity
79589;BME280;69067;51.930;4.492;2023-05-20T00:00:55;102501.81;;;20.31;44.88
79589;BME280;69067;51.930;4.492;2023-05-20T00:03:21;102499.97;;;20.31;45.48
79589;BME280;69067;51.930;4.492;2023-05-20T00:05:47;102502.81;;;20.30;44.64
79589;BME280;69067;51.930;4.492;2023-05-20T00:08:13;102497.28;;;20.31;45.44
79589;BME280;69067;51.930;4.492;2023-05-20T00:10:39;102494.72;;;20.30;45.82
79589;BME280;69067;51.930;4.492;2023-05-20T00:13:06;102499.13;;;20.31;44.83
79589;BME280;69067;51.930;4.492;2023-05-20T00:15:32;102495.69;;;20.29;44.77
79589;BME280;69067;51.930;4.492;2023-05-20T00:18:01;102503.69;;;20.30;45.46
79589;BME280;69067;51.930;4.492;2023-05-20T00:20:26;102513.66;;;20.30;44.94
79589;BME280;69067;51.930;4.492;2023-05-20T00:22:52;102508.22;;;20.30;45.28
79589;BME280;69067;51.930;4.492;2023-05-20T00:25:18;102504.66;;;20.29;45.48
79589;BME280;69067;51.930;4.492;2023-05-20T00:27:44;102506.53;;;20.29;45.09
79589;BME280;69067;51.930;4.492;2023-05-20T00:30:11;102503.81;;;20.29;45.66
79589;BME280;69067;51.930;4.492;2023-05-20T00:32:37;102502.09;;;20.28;45.83
79589;BME280;69067;51.930;4.492;2023-05-20T00:35:03;102503.97;;;20.27;45.63
79589;BME280;69067;51.930;4.492;2023-05-20T00:37:29;102494.13;;;20.26;45.46
79589;BME280;69067;51.930;4.492;2023-05-20T00:39:54;102500.25;;;20.28;45.36
79589;BME280;69067;51.930;4.492;2023-05-20T00:42:26;102494.84;;;20.28;45.10
79589;BME280;69067;51.930;4.492;2023-05-20T00:44:52;102498.41;;;20.29;45.47
79589;BME280;69067;51.930;4.492;2023-05-20T00:47:20;102499.41;;;20.28;45.57
79589;BME280;69067;51.930;4.492;2023-05-20T00:49:52;102494.97;;;20.27;45.56
79589;BME280;69067;51.930;4.492;2023-05-20T00:52:18;102491.28;;;20.28;45.22
79589;BME280;69067;51.930;4.492;2023-05-20T00:54:45;102493.00;;;20.29;45.34
79589;BME280;69067;51.930;4.492;2023-05-20T00:57:11;102480.47;;;20.28;45.48
79589;BME280;69067;51.930;4.492;2023-05-20T00:59:38;102489.56;;;20.27;45.30
79589;BME280;69067;51.930;4.492;2023-05-20T01:02:04;102482.31;;;20.27;45.20
79589;BME280;69067;51.930;4.492;2023-05-20T01:04:31;102482.31;;;20.27;45.57
79589;BME280;69067;51.930;4.492;2023-05-20T01:07:03;102473.34;;;20.27;45.28
79589;BME280;69067;51.930;4.492;2023-05-20T01:09:31;102476.06;;;20.27;45.76
79589;BME280;69067;51.930;4.492;2023-05-20T01:14:48;102477.06;;;20.26;45.79
79589;BME280;69067;51.930;4.492;2023-05-20T01:17:19;102471.50;;;20.27;46.20
79589;BME280;69067;51.930;4.492;2023-05-20T01:19:46;102475.06;;;20.28;45.88
79589;BME280;69067;51.930;4.492;2023-05-20T01:22:14;102463.38;;;20.27;46.21
79589;BME280;69067;51.930;4.492;2023-05-20T01:24:40;102464.22;;;20.28;45.50
79589;BME280;69067;51.930;4.492;2023-05-20T01:27:11;102467.25;;;20.25;45.46
79589;BME280;69067;51.930;4.492;2023-05-20T01:29:39;102464.38;;;20.26;45.67
79589;BME280;69067;51.930;4.492;2023-05-20T01:32:11;102468.97;;;20.26;45.58
79589;BME280;69067;51.930;4.492;2023-05-20T01:34:41;102467.09;;;20.26;45.72
79589;BME280;69067;51.930;4.492;2023-05-20T01:37:09;102460.97;;;20.24;45.80
79589;BME280;69067;51.930;4.492;2023-05-20T01:39:38;102457.28;;;20.25;45.79
79589;BME280;69067;51.930;4.492;2023-05-20T01:42:09;102463.56;;;20.26;45.85
79589;BME280;69067;51.930;4.492;2023-05-20T01:44:36;102456.44;;;20.25;46.39
79589;BME280;69067;51.930;4.492;2023-05-20T01:47:02;102454.84;;;20.22;46.04
79589;BME280;69067;51.930;4.492;2023-05-20T01:49:28;102443.91;;;20.24;45.15
79589;BME280;69067;51.930;4.492;2023-05-20T01:51:54;102453.72;;;20.25;45.91
79589;BME280;69067;51.930;4.492;2023-05-20T01:54:21;102455.56;;;20.24;46.54
79589;BME280;69067;51.930;4.492;2023-05-20T01:56:47;102445.75;;;20.23;46.63
79589;BME280;69067;51.930;4.492;2023-05-20T01:59:12;102453.00;;;20.23;45.33
79589;BME280;69067;51.930;4.492;2023-05-20T02:01:38;102450.31;;;20.23;45.63
79589;BME280;69067;51.930;4.492;2023-05-20T02:04:04;102451.31;;;20.22;45.97
79589;BME280;69067;51.930;4.492;2023-05-20T02:06:29;102451.31;;;20.22;45.77
79589;BME280;69067;51.930;4.492;2023-05-20T02:08:55;102442.47;;;20.20;46.38
79589;BME280;69067;51.930;4.492;2023-05-20T02:11:21;102444.19;;;20.21;45.87
79589;BME280;69067;51.930;4.492;2023-05-20T02:13:48;102453.88;;;20.23;46.04
79589;BME280;69067;51.930;4.492;2023-05-20T02:16:15;102448.47;;;20.23;46.37
79589;BME280;69067;51.930;4.492;2023-05-20T02:18:41;102451.16;;;20.23;45.87
79589;BME280;69067;51.930;4.492;2023-05-20T02:21:07;102451.16;;;20.23;46.07
79589;BME280;69067;51.930;4.492;2023-05-20T02:23:33;102448.47;;;20.23;46.42
79589;BME280;69067;51.930;4.492;2023-05-20T02:25:59;102447.59;;;20.23;46.48
79589;BME280;69067;51.930;4.492;2023-05-20T02:28:25;102446.03;;;20.20;46.39
79589;BME280;69067;51.930;4.492;2023-05-20T02:30:51;102451.31;;;20.22;46.17
79589;BME280;69067;51.930;4.492;2023-05-20T02:33:18;102440.47;;;20.22;46.15
79589;BME280;69067;51.930;4.492;2023-05-20T02:35:45;102444.19;;;20.21;45.92
79589;BME280;69067;51.930;4.492;2023-05-20T02:38:11;102434.34;;;20.20;46.04
79589;BME280;69067;51.930;4.492;2023-05-20T02:40:37;102440.63;;;20.20;45.58
79589;BME280;69067;51.930;4.492;2023-05-20T02:43:03;102433.50;;;20.19;46.18
79589;BME280;69067;51.930;4.492;2023-05-20T02:45:29;102438.91;;;20.19;46.61
79589;BME280;69067;51.930;4.492;2023-05-20T02:47:55;102432.97;;;20.16;46.58
79589;BME280;69067;51.930;4.492;2023-05-20T02:50:21;102432.69;;;20.19;46.99
79589;BME280;69067;51.930;4.492;2023-05-20T02:52:46;102438.91;;;20.19;46.91
79589;BME280;69067;51.930;4.492;2023-05-20T02:55:14;102440.78;;;20.19;46.49
79589;BME280;69067;51.930;4.492;2023-05-20T02:57:40;102430.25;;;20.16;46.23
79589;BME280;69067;51.930;4.492;2023-05-20T03:00:07;102426.56;;;20.17;46.88
79589;BME280;69067;51.930;4.492;2023-05-20T03:02:37;102430.25;;;20.16;46.32
79589;BME280;69067;51.930;4.492;2023-05-20T03:05:04;102431.13;;;20.16;46.34
79589;BME280;69067;51.930;4.492;2023-05-20T03:07:31;102424.84;;;20.16;46.51
79589;BME280;69067;51.930;4.492;2023-05-20T03:10:00;102428.41;;;20.16;46.94
79589;BME280;69067;51.930;4.492;2023-05-20T03:12:28;102437.50;;;20.15;46.14
79589;BME280;69067;51.930;4.492;2023-05-20T03:14:54;102433.94;;;20.15;46.69
79589;BME280;69067;51.930;4.492;2023-05-20T03:17:20;102436.66;;;20.15;47.10
79589;BME280;69067;51.930;4.492;2023-05-20T03:19:46;102433.94;;;20.15;46.79
79589;BME280;69067;51.930;4.492;2023-05-20T03:22:12;102434.81;;;20.15;46.38
79589;BME280;69067;51.930;4.492;2023-05-20T03:24:38;102434.81;;;20.15;45.94
79589;BME280;69067;51.930;4.492;2023-05-20T03:27:05;102436.53;;;20.16;45.97
79589;BME280;69067;51.930;4.492;2023-05-20T03:29:31;102432.25;;;20.14;46.83
79589;BME280;69067;51.930;4.492;2023-05-20T03:31:58;102437.66;;;20.14;46.32
79589;BME280;69067;51.930;4.492;2023-05-20T03:34:23;102434.81;;;20.15;46.52
79589;BME280;69067;51.930;4.492;2023-05-20T03:36:50;102442.91;;;20.15;46.36
79589;BME280;69067;51.930;4.492;2023-05-20T03:39:16;102433.25;;;20.13;46.32
79589;BME280;69067;51.930;4.492;2023-05-20T03:41:41;102433.09;;;20.14;46.60
79589;BME280;69067;51.930;4.492;2023-05-20T03:44:07;102436.66;;;20.15;46.70
79589;BME280;69067;51.930;4.492;2023-05-20T03:46:33;102433.94;;;20.15;46.53
79589;BME280;69067;51.930;4.492;2023-05-20T03:48:59;102427.00;;;20.12;46.76
79589;BME280;69067;51.930;4.492;2023-05-20T03:51:26;102421.75;;;20.11;46.59
79589;BME280;69067;51.930;4.492;2023-05-20T03:53:52;102429.53;;;20.14;46.55
79589;BME280;69067;51.930;4.492;2023-05-20T03:56:18;102429.72;;;20.12;45.95
79589;BME280;69067;51.930;4.492;2023-05-20T03:58:44;102430.41;;;20.14;46.88
79589;BME280;69067;51.930;4.492;2023-05-20T04:01:09;102419.03;;;20.11;46.40
79589;BME280;69067;51.930;4.492;2023-05-20T04:03:39;102420.88;;;20.10;46.91
79589;BME280;69067;51.930;4.492;2023-05-20T04:06:06;102426.84;;;20.14;46.76
79589;BME280;69067;51.930;4.492;2023-05-20T04:08:32;102426.28;;;20.10;46.54
79589;BME280;69067;51.930;4.492;2023-05-20T04:11:03;102421.75;;;20.11;47.17
79589;BME280;69067;51.930;4.492;2023-05-20T04:13:29;102419.19;;;20.09;47.41
79589;BME280;69067;51.930;4.492;2023-05-20T04:15:55;102415.47;;;20.10;46.64
79589;BME280;69067;51.930;4.492;2023-05-20T04:18:21;102425.44;;;20.10;46.72
79589;BME280;69067;51.930;4.492;2023-05-20T04:20:47;102427.16;;;20.11;46.83
79589;BME280;69067;51.930;4.492;2023-05-20T04:23:12;102424.44;;;20.11;47.09
79589;BME280;69067;51.930;4.492;2023-05-20T04:25:38;102418.19;;;20.10;47.00
79589;BME280;69067;51.930;4.492;2023-05-20T04:28:06;102426.28;;;20.10;47.79
79589;BME280;69067;51.930;4.492;2023-05-20T04:30:33;102425.44;;;20.10;47.13
79589;BME280;69067;51.930;4.492;2023-05-20T04:32:59;102434.28;;;20.12;47.52
79589;BME280;69067;51.930;4.492;2023-05-20T04:35:27;102428.16;;;20.10;47.37
79589;BME280;69067;51.930;4.492;2023-05-20T04:37:54;102425.44;;;20.10;46.75
79589;BME280;69067;51.930;4.492;2023-05-20T04:40:20;102433.69;;;20.08;46.48
79589;BME280;69067;51.930;4.492;2023-05-20T04:42:47;102431.00;;;20.08;46.88
79589;BME280;69067;51.930;4.492;2023-05-20T04:45:12;102429.13;;;20.09;47.10
79589;BME280;69067;51.930;4.492;2023-05-20T04:47:38;102433.69;;;20.08;47.09
79589;BME280;69067;51.930;4.492;2023-05-20T04:50:06;102433.81;;;20.06;46.67
79589;BME280;69067;51.930;4.492;2023-05-20T04:52:36;102440.09;;;20.07;47.10
79589;BME280;69067;51.930;4.492;2023-05-20T04:55:08;102435.53;;;20.08;47.10
79589;BME280;69067;51.930;4.492;2023-05-20T04:57:34;102425.72;;;20.06;47.07
79589;BME280;69067;51.930;4.492;2023-05-20T05:00:04;102426.72;;;20.05;47.10
79589;BME280;69067;51.930;4.492;2023-05-20T05:02:33;102422.03;;;20.08;47.03
79589;BME280;69067;51.930;4.492;2023-05-20T05:04:59;102426.44;;;20.09;46.68
79589;BME280;69067;51.930;4.492;2023-05-20T05:07:24;102427.28;;;20.09;46.56
79589;BME280;69067;51.930;4.492;2023-05-20T05:09:50;102416.59;;;20.08;47.14
79589;BME280;69067;51.930;4.492;2023-05-20T05:12:16;102419.19;;;20.09;47.12
79589;BME280;69067;51.930;4.492;2023-05-20T05:14:41;102423.72;;;20.09;47.19
79589;BME280;69067;51.930;4.492;2023-05-20T05:17:07;102425.44;;;20.10;46.88
79589;BME280;69067;51.930;4.492;2023-05-20T05:19:33;102425.44;;;20.10;46.59
79589;BME280;69067;51.930;4.492;2023-05-20T05:21:58;102421.16;;;20.07;47.09
79589;BME280;69067;51.930;4.492;2023-05-20T05:24:24;102417.59;;;20.06;47.67
79589;BME280;69067;51.930;4.492;2023-05-20T05:26:54;102416.47;;;20.09;47.18
79589;BME280;69067;51.930;4.492;2023-05-20T05:29:19;102411.19;;;20.08;46.48
79589;BME280;69067;51.930;4.492;2023-05-20T05:31:45;102416.59;;;20.08;46.47
79589;BME280;69067;51.930;4.492;2023-05-20T05:34:11;102419.31;;;20.08;46.82
79589;BME280;69067;51.930;4.492;2023-05-20T05:36:39;102416.59;;;20.08;46.50
79589;BME280;69067;51.930;4.492;2023-05-20T05:39:05;102416.59;;;20.08;46.46
79589;BME280;69067;51.930;4.492;2023-05-20T05:41:31;102414.91;;;20.06;47.45
79589;BME280;69067;51.930;4.492;2023-05-20T05:43:58;102416.75;;;20.06;46.79
79589;BME280;69067;51.930;4.492;2023-05-20T05:46:24;102409.81;;;20.03;46.24
79589;BME280;69067;51.930;4.492;2023-05-20T05:48:50;102409.66;;;20.05;46.83
79589;BME280;69067;51.930;4.492;2023-05-20T05:51:16;102404.41;;;20.03;46.87
79589;BME280;69067;51.930;4.492;2023-05-20T05:53:43;102408.94;;;20.03;47.94
79589;BME280;69067;51.930;4.492;2023-05-20T05:56:08;102415.22;;;20.03;47.47
79589;BME280;69067;51.930;4.492;2023-05-20T05:58:34;102408.09;;;20.02;47.22
79589;BME280;69067;51.930;4.492;2023-05-20T06:01:00;102405.66;;;19.99;47.38
79589;BME280;69067;51.930;4.492;2023-05-20T06:03:26;102409.22;;;20.00;47.26
79589;BME280;69067;51.930;4.492;2023-05-20T06:05:54;102409.09;;;20.01;47.86
79589;BME280;69067;51.930;4.492;2023-05-20T06:08:20;102410.09;;;20.00;47.08
79589;BME280;69067;51.930;4.492;2023-05-20T06:10:47;102404.69;;;20.00;47.80
79589;BME280;69067;51.930;4.492;2023-05-20T06:13:14;102406.38;;;20.01;47.16
79589;BME280;69067;51.930;4.492;2023-05-20T06:15:40;102409.94;;;20.02;47.51
79589;BME280;69067;51.930;4.492;2023-05-20T06:18:05;102413.50;;;20.02;47.29
79589;BME280;69067;51.930;4.492;2023-05-20T06:20:31;102416.22;;;20.02;47.43
79589;BME280;69067;51.930;4.492;2023-05-20T06:22:57;102409.09;;;20.01;46.94
79589;BME280;69067;51.930;4.492;2023-05-20T06:25:23;102408.38;;;19.99;47.67
79589;BME280;69067;51.930;4.492;2023-05-20T06:27:49;102406.38;;;20.01;47.75
79589;BME280;69067;51.930;4.492;2023-05-20T06:30:15;102410.09;;;20.00;46.85
79589;BME280;69067;51.930;4.492;2023-05-20T06:32:41;102400.13;;;20.01;47.55
79589;BME280;69067;51.930;4.492;2023-05-20T06:35:08;102402.97;;;19.99;46.92
79589;BME280;69067;51.930;4.492;2023-05-20T06:37:34;102402.09;;;19.99;47.61
79589;BME280;69067;51.930;4.492;2023-05-20T06:40:00;102400.25;;;19.99;47.46
79589;BME280;69067;51.930;4.492;2023-05-20T06:42:26;102399.25;;;20.00;47.82
79589;BME280;69067;51.930;4.492;2023-05-20T06:44:51;102393.16;;;19.98;48.04
79589;BME280;69067;51.930;4.492;2023-05-20T06:47:18;102393.00;;;20.00;47.37
79589;BME280;69067;51.930;4.492;2023-05-20T06:49:44;102395.84;;;19.98;47.62
79589;BME280;69067;51.930;4.492;2023-05-20T06:52:09;102393.84;;;20.00;47.51
79589;BME280;69067;51.930;4.492;2023-05-20T06:54:37;102393.00;;;20.00;47.53
79589;BME280;69067;51.930;4.492;2023-05-20T06:57:09;102385.03;;;19.98;47.29
79589;BME280;69067;51.930;4.492;2023-05-20T06:59:36;102390.16;;;20.01;48.33
79589;BME280;69067;51.930;4.492;2023-05-20T07:02:03;102380.34;;;20.00;47.88
79589;BME280;69067;51.930;4.492;2023-05-20T07:04:29;102380.34;;;20.00;47.15
79589;BME280;69067;51.930;4.492;2023-05-20T07:06:55;102381.19;;;20.01;47.35
79589;BME280;69067;51.930;4.492;2023-05-20T07:09:21;102388.44;;;20.00;46.90
79589;BME280;69067;51.930;4.492;2023-05-20T07:11:46;102365.97;;;20.00;47.47
79589;BME280;69067;51.930;4.492;2023-05-20T07:14:13;102378.50;;;20.01;47.56
79589;BME280;69067;51.930;4.492;2023-05-20T07:16:38;102377.63;;;20.00;47.35
79589;BME280;69067;51.930;4.492;2023-05-20T07:19:04;102379.34;;;20.01;48.07
79589;BME280;69067;51.930;4.492;2023-05-20T07:21:30;102373.41;;;19.98;47.35
79589;BME280;69067;51.930;4.492;2023-05-20T07:23:56;102366.81;;;20.00;47.31
79589;BME280;69067;51.930;4.492;2023-05-20T07:26:21;102361.72;;;19.97;47.25
79589;BME280;69067;51.930;4.492;2023-05-20T07:28:47;102372.22;;;20.00;47.97
79589;BME280;69067;51.930;4.492;2023-05-20T07:31:13;102369.53;;;20.00;47.46
79589;BME280;69067;51.930;4.492;2023-05-20T07:33:39;102361.41;;;20.00;46.94
79589;BME280;69067;51.930;4.492;2023-05-20T07:36:05;102364.13;;;20.00;48.06
79589;BME280;69067;51.930;4.492;2023-05-20T07:38:30;102361.41;;;20.00;47.72
79589;BME280;69067;51.930;4.492;2023-05-20T07:40:57;102362.28;;;20.01;47.87
79589;BME280;69067;51.930;4.492;2023-05-20T07:43:23;102362.84;;;20.04;47.98
79589;BME280;69067;51.930;4.492;2023-05-20T07:45:48;102357.44;;;20.04;50.40
79589;BME280;69067;51.930;4.492;2023-05-20T07:48:15;102363.53;;;20.06;51.43
79589;BME280;69067;51.930;4.492;2023-05-20T07:50:40;102355.41;;;20.06;51.77
79589;BME280;69067;51.930;4.492;2023-05-20T07:53:06;102349.16;;;20.06;50.53
79589;BME280;69067;51.930;4.492;2023-05-20T07:55:33;102345.59;;;20.05;50.17
79589;BME280;69067;51.930;4.492;2023-05-20T07:58:00;102349.84;;;20.08;50.15
79589;BME280;69067;51.930;4.492;2023-05-20T08:00:26;102358.81;;;20.09;51.67
79589;BME280;69067;51.930;4.492;2023-05-20T08:02:51;102353.41;;;20.09;50.73
79589;BME280;69067;51.930;4.492;2023-05-20T08:05:17;102355.97;;;20.10;50.85
79589;BME280;69067;51.930;4.492;2023-05-20T08:07:43;102354.28;;;20.09;52.27
79589;BME280;69067;51.930;4.492;2023-05-20T08:10:09;102351.44;;;20.11;52.00
79589;BME280;69067;51.930;4.492;2023-05-20T08:12:35;102354.00;;;20.12;52.02
79589;BME280;69067;51.930;4.492;2023-05-20T08:15:01;102354.81;;;20.13;52.63
79589;BME280;69067;51.930;4.492;2023-05-20T08:17:27;102354.00;;;20.12;52.13
79589;BME280;69067;51.930;4.492;2023-05-20T08:19:52;102353.81;;;20.14;52.33
79589;BME280;69067;51.930;4.492;2023-05-20T08:22:18;102351.97;;;20.14;52.77
79589;BME280;69067;51.930;4.492;2023-05-20T08:24:44;102347.28;;;20.16;53.26
79589;BME280;69067;51.930;4.492;2023-05-20T08:27:09;102337.59;;;20.14;52.80
79589;BME280;69067;51.930;4.492;2023-05-20T08:29:35;102333.88;;;20.15;52.51
79589;BME280;69067;51.930;4.492;2023-05-20T08:32:01;102344.56;;;20.16;52.55
79589;BME280;69067;51.930;4.492;2023-05-20T08:34:27;102337.16;;;20.18;52.63
79589;BME280;69067;51.930;4.492;2023-05-20T08:36:52;102345.28;;;20.18;52.44
79589;BME280;69067;51.930;4.492;2023-05-20T08:39:18;102339.88;;;20.18;51.65
79589;BME280;69067;51.930;4.492;2023-05-20T08:41:46;102340.72;;;20.19;51.74
79589;BME280;69067;51.930;4.492;2023-05-20T08:44:12;102330.91;;;20.18;52.50
79589;BME280;69067;51.930;4.492;2023-05-20T08:46:39;102329.06;;;20.18;51.37
79589;BME280;69067;51.930;4.492;2023-05-20T08:49:06;102330.91;;;20.18;51.69
79589;BME280;69067;51.930;4.492;2023-05-20T08:51:35;102315.34;;;20.20;51.54
79589;BME280;69067;51.930;4.492;2023-05-20T08:54:01;102318.06;;;20.20;51.08
79589;BME280;69067;51.930;4.492;2023-05-20T08:56:28;102313.81;;;20.17;50.88
79589;BME280;69067;51.930;4.492;2023-05-20T08:58:55;102317.19;;;20.19;51.87
79589;BME280;69067;51.930;4.492;2023-05-20T09:01:24;102318.78;;;20.22;51.60
79589;BME280;69067;51.930;4.492;2023-05-20T09:03:52;102314.50;;;20.19;50.46
79589;BME280;69067;51.930;4.492;2023-05-20T09:06:18;102307.25;;;20.20;50.54
79589;BME280;69067;51.930;4.492;2023-05-20T09:08:45;102310.78;;;20.20;51.40
79589;BME280;69067;51.930;4.492;2023-05-20T09:11:11;102309.81;;;20.21;50.75
79589;BME280;69067;51.930;4.492;2023-05-20T09:13:37;102312.38;;;20.23;50.62
79589;BME280;69067;51.930;4.492;2023-05-20T09:16:03;102312.22;;;20.24;50.70
79589;BME280;69067;51.930;4.492;2023-05-20T09:18:30;102304.97;;;20.25;51.02
79589;BME280;69067;51.930;4.492;2023-05-20T09:20:56;102306.81;;;20.24;50.74
79589;BME280;69067;51.930;4.492;2023-05-20T09:23:22;102300.69;;;20.22;49.84
79589;BME280;69067;51.930;4.492;2023-05-20T09:25:50;102296.00;;;20.24;50.61
79589;BME280;69067;51.930;4.492;2023-05-20T09:28:22;102288.72;;;20.25;49.86
79589;BME280;69067;51.930;4.492;2023-05-20T09:30:49;102294.13;;;20.25;50.09
79589;BME280;69067;51.930;4.492;2023-05-20T09:33:16;102281.75;;;20.22;49.64
79589;BME280;69067;51.930;4.492;2023-05-20T09:35:42;102287.72;;;20.26;49.76
79589;BME280;69067;51.930;4.492;2023-05-20T09:38:10;102286.69;;;20.27;49.62
79589;BME280;69067;51.930;4.492;2023-05-20T09:40:36;102296.66;;;20.26;48.78
79589;BME280;69067;51.930;4.492;2023-05-20T09:43:04;102282.31;;;20.26;49.19
79589;BME280;69067;51.930;4.492;2023-05-20T09:45:33;102282.31;;;20.26;48.66
79589;BME280;69067;51.930;4.492;2023-05-20T09:48:00;102292.09;;;20.27;49.36
79589;BME280;69067;51.930;4.492;2023-05-20T09:50:28;102282.16;;;20.27;48.73
79589;BME280;69067;51.930;4.492;2023-05-20T09:52:55;102275.88;;;20.27;48.43
79589;BME280;69067;51.930;4.492;2023-05-20T09:55:23;102276.91;;;20.26;48.52
79589;BME280;69067;51.930;4.492;2023-05-20T09:57:49;102280.28;;;20.28;48.57
79589;BME280;69067;51.930;4.492;2023-05-20T10:00:16;102271.31;;;20.27;48.63
79589;BME280;69067;51.930;4.492;2023-05-20T10:02:52;102271.19;;;20.29;48.61
79589;BME280;69067;51.930;4.492;2023-05-20T10:05:22;102275.59;;;20.30;48.94
79589;BME280;69067;51.930;4.492;2023-05-20T10:13:55;102259.22;;;20.31;48.11
79589;BME280;69067;51.930;4.492;2023-05-20T10:17:05;102255.66;;;20.31;48.69
79589;BME280;69067;51.930;4.492;2023-05-20T10:19:35;102261.91;;;20.31;47.97
79589;BME280;69067;51.930;4.492;2023-05-20T10:22:06;102258.38;;;20.31;48.12
79589;BME280;69067;51.930;4.492;2023-05-20T10:24:37;102243.13;;;20.30;48.48
79589;BME280;69067;51.930;4.492;2023-05-20T10:27:10;102249.25;;;20.32;47.90
79589;BME280;69067;51.930;4.492;2023-05-20T10:29:45;102250.25;;;20.31;47.40
79589;BME280;69067;51.930;4.492;2023-05-20T10:32:26;102247.41;;;20.32;48.00
79589;BME280;69067;51.930;4.492;2023-05-20T10:35:04;102240.16;;;20.33;47.30
79589;BME280;69067;51.930;4.492;2023-05-20T10:37:43;102235.59;;;20.33;47.46
79589;BME280;69067;51.930;4.492;2023-05-20T10:40:11;102223.75;;;20.34;48.00
79589;BME280;69067;51.930;4.492;2023-05-20T10:42:39;102224.63;;;20.35;47.53
79589;BME280;69067;51.930;4.492;2023-05-20T10:45:07;102227.19;;;20.36;47.10
79589;BME280;69067;51.930;4.492;2023-05-20T10:47:34;102221.75;;;20.36;47.25
79589;BME280;69067;51.930;4.492;2023-05-20T10:50:00;102230.72;;;20.37;46.91
79589;BME280;69067;51.930;4.492;2023-05-20T10:52:32;102218.91;;;20.38;47.31
79589;BME280;69067;51.930;4.492;2023-05-20T10:55:02;102214.66;;;20.35;47.73
79589;BME280;69067;51.930;4.492;2023-05-20T10:57:29;102212.66;;;20.37;46.95
79589;BME280;69067;51.930;4.492;2023-05-20T10:59:57;102200.13;;;20.36;47.58
79589;BME280;69067;51.930;4.492;2023-05-20T11:02:23;102214.50;;;20.37;47.86
79589;BME280;69067;51.930;4.492;2023-05-20T11:04:55;102214.50;;;20.37;46.85
79589;BME280;69067;51.930;4.492;2023-05-20T11:07:30;102208.09;;;20.38;46.33
79589;BME280;69067;51.930;4.492;2023-05-20T11:09:57;102197.28;;;20.38;47.34
79589;BME280;69067;51.930;4.492;2023-05-20T11:12:25;102203.53;;;20.38;47.09
79589;BME280;69067;51.930;4.492;2023-05-20T11:14:52;102193.00;;;20.35;47.07
79589;BME280;69067;51.930;4.492;2023-05-20T11:17:18;102197.28;;;20.38;46.80
79589;BME280;69067;51.930;4.492;2023-05-20T11:19:46;102188.16;;;20.39;47.10
79589;BME280;69067;51.930;4.492;2023-05-20T11:22:12;102184.59;;;20.38;47.37
79589;BME280;69067;51.930;4.492;2023-05-20T11:24:38;102182.75;;;20.39;46.53
79589;BME280;69067;51.930;4.492;2023-05-20T11:27:04;102189.81;;;20.40;46.76
79589;BME280;69067;51.930;4.492;2023-05-20T11:29:31;102187.13;;;20.40;46.50
79589;BME280;69067;51.930;4.492;2023-05-20T11:31:59;102184.41;;;20.40;47.00
79589;BME280;69067;51.930;4.492;2023-05-20T11:34:33;102187.13;;;20.40;46.21
79589;BME280;69067;51.930;4.492;2023-05-20T11:36:59;102176.28;;;20.40;46.92
79589;BME280;69067;51.930;4.492;2023-05-20T11:39:28;102186.13;;;20.41;46.83
79589;BME280;69067;51.930;4.492;2023-05-20T11:41:54;102171.75;;;20.40;46.18
79589;BME280;69067;51.930;4.492;2023-05-20T11:44:21;102170.22;;;20.38;46.91
79589;BME280;69067;51.930;4.492;2023-05-20T11:46:47;102164.47;;;20.41;46.68
79589;BME280;69067;51.930;4.492;2023-05-20T11:49:14;102173.44;;;20.41;46.05
79589;BME280;69067;51.930;4.492;2023-05-20T11:51:42;102170.75;;;20.41;46.05
79589;BME280;69067;51.930;4.492;2023-05-20T11:54:08;102168.19;;;20.40;46.46
79589;BME280;69067;51.930;4.492;2023-05-20T11:56:38;102160.78;;;20.42;46.84
79589;BME280;69067;51.930;4.492;2023-05-20T11:59:08;102155.34;;;20.42;45.96
79589;BME280;69067;51.930;4.492;2023-05-20T12:01:38;102149.94;;;20.42;46.33
79589;BME280;69067;51.930;4.492;2023-05-20T12:04:08;102158.78;;;20.44;46.06
79589;BME280;69067;51.930;4.492;2023-05-20T12:06:35;102150.66;;;20.44;46.06
79589;BME280;69067;51.930;4.492;2023-05-20T12:09:05;102147.81;;;20.46;45.81
79589;BME280;69067;51.930;4.492;2023-05-20T12:11:37;102140.53;;;20.46;46.60
79589;BME280;69067;51.930;4.492;2023-05-20T12:14:07;102145.09;;;20.46;45.54
79589;BME280;69067;51.930;4.492;2023-05-20T12:16:34;102154.06;;;20.46;46.44
79589;BME280;69067;51.930;4.492;2023-05-20T12:19:01;102153.88;;;20.48;46.28
79589;BME280;69067;51.930;4.492;2023-05-20T12:21:28;102152.03;;;20.48;45.66
79589;BME280;69067;51.930;4.492;2023-05-20T12:23:54;102149.50;;;20.47;45.32
79589;BME280;69067;51.930;4.492;2023-05-20T12:26:23;102143.91;;;20.48;45.56
79589;BME280;69067;51.930;4.492;2023-05-20T12:28:50;102143.06;;;20.48;44.92
79589;BME280;69067;51.930;4.492;2023-05-20T12:31:15;102141.06;;;20.50;45.99
79589;BME280;69067;51.930;4.492;2023-05-20T12:33:41;102140.91;;;20.51;46.18
79589;BME280;69067;51.930;4.492;2023-05-20T12:36:07;102135.66;;;20.50;45.45
79589;BME280;69067;51.930;4.492;2023-05-20T12:38:33;102149.88;;;20.52;45.28
79589;BME280;69067;51.930;4.492;2023-05-20T12:40:59;102138.19;;;20.51;46.11
79589;BME280;69067;51.930;4.492;2023-05-20T12:43:25;102145.31;;;20.52;45.80
79589;BME280;69067;51.930;4.492;2023-05-20T12:45:51;102131.78;;;20.52;45.57
79589;BME280;69067;51.930;4.492;2023-05-20T12:48:17;102126.53;;;20.51;45.88
79589;BME280;69067;51.930;4.492;2023-05-20T12:50:42;102128.09;;;20.53;46.09
79589;BME280;69067;51.930;4.492;2023-05-20T12:53:08;102124.34;;;20.54;46.04
79589;BME280;69067;51.930;4.492;2023-05-20T12:55:34;102134.16;;;20.55;46.17
79589;BME280;69067;51.930;4.492;2023-05-20T12:58:00;102127.91;;;20.55;44.97